Barrow, AK

6:04 AM AKDT on October 01, 2016 (GMT -0800)
Wiley Post-Will Rogers Memorial | | Change Station

Elev 43 ft 71.28 °N, 156.79 °W | Updated 11 minutes ago

Scattered Clouds
Scattered Clouds
37 °F
Feels Like 28 °F
N
14
Wind Variable Wind from ESE

Today
High -- | Low -- °F
--% Chance of Precip.
Yesterday
High -- | Low -- °F
Precip. -- in
Pressure 30.08 in
Visibility 10.0 miles
Clouds Few 3000 ft
Few 12000 ft
Scattered Clouds 18000 ft
Windchill 28 °F
Dew Point 34 °F
Humidity 89%
Rainfall 0.00 in
Snow Depth Not available.
8:48 AM 7:42 PM
New Moon, 0% visible
METAR PABR 011353Z 11012KT 10SM FEW030 FEW120 SCT180 03/01 A3008 RMK AO2 SLP186 T00280011
Pressure 30.08 in
Visibility 10.0 miles
Clouds Few 3000 ft
Few 12000 ft
Scattered Clouds 18000 ft
Windchill 28 °F
Dew Point 34 °F
Humidity 89%
Rainfall 0.00 in
Snow Depth Not available.
8:48 AM 7:42 PM
New Moon, 0% visible
METAR PABR 011353Z 11012KT 10SM FEW030 FEW120 SCT180 03/01 A3008 RMK AO2 SLP186 T00280011

10-Day Weather Forecast

Almanac

Astronomy

Oct. 01, 2016 Rise Set
Actual Time
Civil Twilight
Nautical Twilight
Astronomical Twilight
Moon
Length of Visible Light
Length of Day
Tomorrow will be .
, % of the Moon is Illuminated

Today's Extremes

State Highs State Lows

Community

WunderPhotos

Upload Photos

1,942,932 photos uploaded!

WunderBlog® & News

Nearby

Air Quality

  Air Quality AQ Index Pollutant
Not available.

Snow Depth

Station Depth Elevation

Earthquake Activity

City Distance Mag. Time & Date
Minimum magnitude displayed is 2.5.

Coastal Water Temperatures

Place Temperature

Stations

Nearby Weather Stations

Station Location Temp. Windchill Dew Point Humidity Wind Precip. Elev Updated Type
                   

Watches & Warnings

There are currently no watches in effect.